Luhans'K, Ukraine
Current Conditions -  °F | °C
As of 9:30 AM on Sunday 21 Dec 2014 (Local Time) from URRR Reporting Station
Moderate Fog Moderate Fog  
Wind Chill: 38°   Ceiling: 200
Heat Index: 41°   Visibility: 0.56mi
Dew Point: 41°   Wind: 4mph
Humidity: 100%   Direction: 300°WNW
Pressure: 29.94"   Gusts: NA
Location:  48.57°N, 39.32°E
Report Text: URRR 210630Z 30002MPS 230V360 0900 R22/0800VP1500D FG VV00205/05 Q1014 22290043 TEMPO 0300 FG OVC002 RMK QBB080 MAST OBSC
Loading
Personal Weather Stations






























Interactive Weather Map New forecast layout! Learn more

10-Day Weather Forecast

Advertisements
Track Severe Weather on mobile